Time;durP1;ratioP1;P1;durP2;ratioP2;P2;SDS_P1;SDS_P2;PMS_P1;PMS_P2;Temp;Humidity;BMP_temperature;BMP_pressure;BME280_temperature;BME280_humidity;BME280_pressure;Samples;Min_cycle;Max_cycle;Signal;HPM_P1;HPM_P2
2020/12/09 00:01:15;;;;;;;35.60;20.83;;;4.20;99.90;;;;;;5070344;28;20181;-60
2020/12/09 00:03:42;;;;;;;29.07;20.13;;;4.30;99.90;;;;;;5070948;28;20447;-59
2020/12/09 00:06:08;;;;;;;30.08;21.23;;;4.20;99.90;;;;;;5069656;28;20201;-59
2020/12/09 00:08:34;;;;;;;32.17;20.98;;;3.80;99.90;;;;;;5070574;28;20316;-59
2020/12/09 00:11:00;;;;;;;30.87;21.50;;;4.00;99.90;;;;;;5071127;28;20272;-60
2020/12/09 00:13:26;;;;;;;32.20;20.33;;;4.10;99.90;;;;;;5069903;28;20678;-58
2020/12/09 00:15:52;;;;;;;35.57;21.43;;;4.20;99.90;;;;;;5069875;28;20907;-59
2020/12/09 00:18:17;;;;;;;34.80;21.60;;;3.70;99.90;;;;;;5069815;28;20442;-59
2020/12/09 00:20:43;;;;;;;31.35;20.60;;;3.90;99.90;;;;;;5069578;28;20189;-59
2020/12/09 00:23:09;;;;;;;30.00;18.50;;;4.10;99.90;;;;;;5069756;28;20199;-59
2020/12/09 00:25:34;;;;;;;31.30;20.67;;;4.10;99.90;;;;;;5064723;28;20242;-59
2020/12/09 00:28:00;;;;;;;31.90;21.40;;;4.20;99.90;;;;;;5063722;28;20189;-60
2020/12/09 00:30:26;;;;;;;32.63;21.37;;;3.90;99.90;;;;;;5069104;28;20216;-59
2020/12/09 00:32:52;;;;;;;32.30;20.60;;;4.10;99.90;;;;;;5069517;28;20250;-59
2020/12/09 00:35:17;;;;;;;32.07;21.77;;;4.20;99.90;;;;;;5069196;28;20236;-59
2020/12/09 00:37:43;;;;;;;33.80;21.00;;;3.90;99.90;;;;;;5069812;28;20436;-59
2020/12/09 00:40:09;;;;;;;31.60;21.17;;;3.70;99.90;;;;;;5069361;28;20181;-59
2020/12/09 00:42:35;;;;;;;33.93;21.63;;;3.80;99.90;;;;;;5069310;28;20665;-61
2020/12/09 00:45:00;;;;;;;32.50;21.20;;;4.00;99.90;;;;;;5069029;28;20213;-59
2020/12/09 00:47:26;;;;;;;33.87;21.43;;;4.00;99.90;;;;;;5068957;28;20651;-59
2020/12/09 00:52:40;;;;;;;31.00;20.67;;;4.60;99.90;;;;;;5070599;28;20904;-60
2020/12/09 00:55:06;;;;;;;31.50;20.75;;;4.60;99.90;;;;;;5069108;28;20227;-58
2020/12/09 00:57:32;;;;;;;29.42;19.35;;;4.50;99.90;;;;;;5069195;28;20235;-59
2020/12/09 00:59:57;;;;;;;31.53;21.73;;;4.30;99.90;;;;;;5068733;28;20188;-59
2020/12/09 01:02:23;;;;;;;33.23;20.73;;;4.50;99.90;;;;;;5069932;28;20197;-60
2020/12/09 01:04:49;;;;;;;33.73;21.33;;;4.30;99.90;;;;;;5068773;28;20558;-60
2020/12/09 01:07:19;;;;;;;32.45;20.58;;;4.50;99.90;;;;;;5068397;28;20238;-60
2020/12/09 01:09:45;;;;;;;30.77;20.02;;;4.40;99.90;;;;;;5084756;28;20216;-59
2020/12/09 01:12:11;;;;;;;32.80;21.42;;;4.60;99.90;;;;;;5068644;28;20217;-59
2020/12/09 01:14:37;;;;;;;32.60;20.23;;;4.60;99.90;;;;;;5068479;28;21981;-59
2020/12/09 01:17:03;;;;;;;34.20;21.37;;;4.30;99.90;;;;;;5068597;28;20193;-59
2020/12/09 01:19:28;;;;;;;28.90;20.50;;;4.60;99.90;;;;;;5068308;28;20480;-59
2020/12/09 01:21:54;;;;;;;28.07;20.90;;;4.50;99.90;;;;;;5068589;28;20556;-59
2020/12/09 01:24:20;;;;;;;32.57;21.20;;;4.70;99.90;;;;;;5067887;28;20197;-59
2020/12/09 01:26:46;;;;;;;31.23;20.33;;;4.60;99.90;;;;;;5067985;28;20494;-58
2020/12/09 01:29:12;;;;;;;32.38;20.25;;;4.40;99.90;;;;;;5062721;28;20538;-58
2020/12/09 01:31:38;;;;;;;31.13;20.10;;;4.70;99.90;;;;;;5068191;28;20315;-59
2020/12/09 01:34:03;;;;;;;33.63;22.20;;;4.90;99.90;;;;;;5068131;28;20231;-59
2020/12/09 01:36:29;;;;;;;28.63;19.33;;;4.70;99.90;;;;;;5068047;28;20601;-60
2020/12/09 01:38:55;;;;;;;31.33;20.73;;;4.60;99.90;;;;;;5067992;28;20185;-58
2020/12/09 01:41:25;;;;;;;34.00;22.05;;;4.40;99.90;;;;;;5068431;28;20265;-59
2020/12/09 01:43:53;;;;;;;30.38;21.55;;;4.40;99.90;;;;;;5068025;28;20204;-59
2020/12/09 01:46:27;;;;;;;34.10;21.48;;;4.40;99.90;;;;;;5067925;28;20628;-59
2020/12/09 01:48:53;;;;;;;35.20;22.80;;;4.20;99.90;;;;;;5067709;28;20200;-59
2020/12/09 01:51:20;;;;;;;30.30;21.58;;;4.40;99.90;;;;;;5068222;28;20213;-60
2020/12/09 01:53:47;;;;;;;32.63;19.65;;;4.30;99.90;;;;;;5067635;28;20212;-59
2020/12/09 01:56:12;;;;;;;31.25;21.50;;;4.30;99.90;;;;;;5067913;28;20216;-59
2020/12/09 01:58:38;;;;;;;32.23;20.90;;;4.40;99.90;;;;;;5067707;28;20186;-59
2020/12/09 02:01:03;;;;;;;33.47;22.63;;;4.30;99.90;;;;;;5068222;28;20268;-60
2020/12/09 02:03:29;;;;;;;36.30;22.53;;;4.40;99.90;;;;;;5067948;28;20228;-59
2020/12/09 02:05:55;;;;;;;35.80;23.23;;;4.40;99.90;;;;;;5067520;28;20212;-59
2020/12/09 02:08:21;;;;;;;30.50;20.07;;;4.30;99.90;;;;;;5067613;28;20268;-59
2020/12/09 02:10:58;;;;;;;33.77;21.47;;;4.50;99.90;;;;;;5067655;28;20190;-59
2020/12/09 02:13:28;;;;;;;37.35;23.40;;;4.50;99.90;;;;;;5067798;28;20557;-60
2020/12/09 02:15:54;;;;;;;34.15;22.55;;;3.80;99.90;;;;;;5067824;28;20211;-58
2020/12/09 02:18:20;;;;;;;32.13;22.48;;;4.40;99.90;;;;;;5068091;28;20181;-60
2020/12/09 02:20:46;;;;;;;36.37;21.50;;;4.80;99.90;;;;;;5061868;28;20218;-58
2020/12/09 02:23:12;;;;;;;34.97;22.13;;;4.60;99.90;;;;;;5059305;28;20483;-58
2020/12/09 02:25:37;;;;;;;33.03;21.57;;;4.60;99.90;;;;;;5068875;28;20212;-58
2020/12/09 02:28:03;;;;;;;34.93;21.50;;;4.70;99.90;;;;;;5067243;28;20446;-59
2020/12/09 02:30:28;;;;;;;38.10;23.27;;;4.40;99.90;;;;;;5067410;28;20660;-60
2020/12/09 02:32:54;;;;;;;33.10;21.17;;;4.60;99.90;;;;;;5067699;28;20189;-59
2020/12/09 02:35:20;;;;;;;35.03;21.53;;;4.30;99.90;;;;;;5067703;28;20674;-59
2020/12/09 02:37:46;;;;;;;36.83;22.63;;;4.40;99.90;;;;;;5067965;28;20736;-58
2020/12/09 02:40:11;;;;;;;37.30;22.57;;;4.40;99.90;;;;;;5067371;28;20190;-59
2020/12/09 02:42:37;;;;;;;34.50;22.30;;;4.40;99.90;;;;;;5067319;28;20181;-59
2020/12/09 02:45:03;;;;;;;32.77;21.63;;;4.40;99.90;;;;;;5068738;28;20209;-59
2020/12/09 02:47:29;;;;;;;35.30;22.38;;;4.80;99.90;;;;;;5067369;28;20181;-59
2020/12/09 02:49:54;;;;;;;37.67;23.57;;;4.50;99.90;;;;;;5070688;28;20177;-59
2020/12/09 02:52:20;;;;;;;33.83;22.50;;;4.00;99.90;;;;;;5071269;28;20189;-59
2020/12/09 02:54:46;;;;;;;36.10;23.70;;;4.60;99.90;;;;;;5072600;28;20769;-59
2020/12/09 02:57:11;;;;;;;33.73;22.40;;;4.40;99.90;;;;;;5071386;28;20427;-59
2020/12/09 02:59:37;;;;;;;36.20;24.30;;;4.50;99.90;;;;;;5071011;28;20280;-59
2020/12/09 03:02:02;;;;;;;30.63;21.07;;;4.70;99.90;;;;;;5071405;28;20612;-58
2020/12/09 03:04:28;;;;;;;32.67;21.30;;;4.40;99.90;;;;;;5072782;28;20189;-59
2020/12/09 03:06:54;;;;;;;35.33;22.33;;;4.10;99.90;;;;;;5070463;28;20435;-58
2020/12/09 03:09:19;;;;;;;38.00;22.10;;;4.60;99.90;;;;;;5070227;28;20243;-59
2020/12/09 03:11:45;;;;;;;35.37;24.03;;;4.60;99.90;;;;;;5070953;28;20223;-59
2020/12/09 03:14:10;;;;;;;41.63;23.70;;;4.40;99.90;;;;;;5070756;28;20270;-58
2020/12/09 03:16:36;;;;;;;32.40;21.87;;;4.30;99.90;;;;;;5071088;28;20217;-59
2020/12/09 03:19:02;;;;;;;32.13;21.93;;;4.40;99.90;;;;;;5068924;28;20185;-58
2020/12/09 03:21:30;;;;;;;34.33;21.70;;;4.60;99.90;;;;;;5070429;28;20218;-58
2020/12/09 03:23:56;;;;;;;33.05;22.17;;;4.50;99.90;;;;;;5070509;28;20940;-59
2020/12/09 03:26:22;;;;;;;37.92;24.17;;;4.60;99.90;;;;;;5067158;28;20316;-60
2020/12/09 03:28:47;;;;;;;36.83;22.50;;;4.40;99.90;;;;;;5065409;28;20273;-59
2020/12/09 03:31:13;;;;;;;36.20;24.23;;;4.40;99.90;;;;;;5070590;28;20651;-60
2020/12/09 03:33:39;;;;;;;37.67;23.17;;;4.70;99.90;;;;;;5070223;28;20207;-60
2020/12/09 03:36:05;;;;;;;30.57;20.97;;;4.60;99.90;;;;;;5070531;28;20288;-60
2020/12/09 03:38:30;;;;;;;35.28;21.08;;;4.80;99.90;;;;;;5070573;28;20189;-60
2020/12/09 03:40:56;;;;;;;39.43;23.23;;;4.40;99.90;;;;;;5071924;28;20182;-61
2020/12/09 03:43:22;;;;;;;34.60;22.30;;;4.60;99.90;;;;;;5070389;28;20185;-60
2020/12/09 03:45:47;;;;;;;35.10;22.10;;;4.60;99.90;;;;;;5070150;28;20243;-59
2020/12/09 03:48:13;;;;;;;37.23;22.70;;;4.60;99.90;;;;;;5069780;28;20189;-60
2020/12/09 03:50:39;;;;;;;33.70;22.90;;;4.50;99.90;;;;;;5069676;28;20191;-60
2020/12/09 03:53:04;;;;;;;37.63;23.23;;;4.30;99.90;;;;;;5071186;28;20206;-60
2020/12/09 03:55:30;;;;;;;35.47;22.97;;;4.60;99.90;;;;;;5069739;28;20460;-60
2020/12/09 03:58:00;;;;;;;35.63;23.17;;;4.70;99.90;;;;;;5069997;28;20282;-59
2020/12/09 04:00:26;;;;;;;37.25;23.88;;;5.20;99.90;;;;;;5068998;28;20235;-60
2020/12/09 04:02:52;;;;;;;35.58;23.52;;;4.70;99.90;;;;;;5069918;28;20181;-60
2020/12/09 04:05:17;;;;;;;38.83;24.70;;;4.50;99.90;;;;;;5069945;28;20721;-59
2020/12/09 04:07:43;;;;;;;35.90;23.73;;;4.60;99.90;;;;;;5069432;28;20185;-59
2020/12/09 04:10:08;;;;;;;33.40;21.80;;;4.00;99.90;;;;;;5069022;28;20589;-60
2020/12/09 04:12:34;;;;;;;37.73;24.10;;;4.40;99.90;;;;;;5070928;28;20220;-59
2020/12/09 04:15:00;;;;;;;37.00;24.57;;;4.50;99.90;;;;;;5070975;28;20213;-59
2020/12/09 04:17:25;;;;;;;39.57;24.33;;;4.40;99.90;;;;;;5069794;28;20189;-60
2020/12/09 04:19:51;;;;;;;36.97;22.70;;;4.30;99.90;;;;;;5066225;28;20260;-59
2020/12/09 04:22:16;;;;;;;37.77;24.20;;;4.80;99.90;;;;;;5069448;28;20184;-59
2020/12/09 04:24:43;;;;;;;36.00;23.40;;;4.60;99.90;;;;;;5069609;28;20230;-60
2020/12/09 04:27:09;;;;;;;39.53;24.20;;;4.50;99.90;;;;;;5066096;28;20645;-61
2020/12/09 04:29:35;;;;;;;38.37;23.53;;;4.70;99.90;;;;;;5059076;28;20276;-60
2020/12/09 04:32:00;;;;;;;34.90;24.20;;;4.50;99.90;;;;;;5070822;28;20531;-60
2020/12/09 04:34:27;;;;;;;36.83;22.73;;;4.80;99.90;;;;;;5069106;28;20213;-60
2020/12/09 04:36:54;;;;;;;33.67;23.35;;;4.70;99.90;;;;;;5069279;28;20205;-60
2020/12/09 04:39:21;;;;;;;37.70;24.13;;;4.80;99.90;;;;;;5069107;28;20189;-60
2020/12/09 04:41:47;;;;;;;34.60;22.75;;;4.60;99.90;;;;;;5069359;28;20666;-60
2020/12/09 04:44:13;;;;;;;40.80;25.67;;;4.30;99.90;;;;;;5068950;28;20229;-60
2020/12/09 04:46:45;;;;;;;40.33;25.50;;;4.80;99.90;;;;;;5068824;28;20233;-60
2020/12/09 04:49:17;;;;;;;36.08;24.80;;;4.70;99.90;;;;;;5068737;28;20276;-60
2020/12/09 04:52:11;;;;;;;37.22;24.17;;;4.60;99.90;;;;;;5068815;28;20225;-60
2020/12/09 04:54:47;;;;;;;37.28;22.90;;;4.60;99.90;;;;;;5068641;28;20289;-60
2020/12/09 04:57:22;;;;;;;38.65;24.75;;;4.40;99.90;;;;;;5069026;28;20556;-60
2020/12/09 04:59:59;;;;;;;38.50;25.13;;;4.70;99.90;;;;;;5068849;28;20177;-60
2020/12/09 05:02:54;;;;;;;39.38;25.02;;;4.30;99.90;;;;;;5069041;28;20192;-60
2020/12/09 05:05:21;;;;;;;38.60;25.35;;;4.30;99.90;;;;;;5068793;28;20201;-60
2020/12/09 05:07:52;;;;;;;38.58;24.98;;;4.40;99.90;;;;;;5068725;28;20743;-60
2020/12/09 05:10:23;;;;;;;35.80;23.45;;;4.30;99.90;;;;;;5068662;28;20185;-60
2020/12/09 05:12:50;;;;;;;38.85;23.85;;;4.70;99.90;;;;;;5068130;28;20177;-60
2020/12/09 05:15:20;;;;;;;38.75;24.00;;;4.60;99.90;;;;;;5068571;28;20205;-60
2020/12/09 05:18:00;;;;;;;33.35;22.52;;;4.70;99.90;;;;;;5068451;28;20185;-60
2020/12/09 05:20:27;;;;;;;38.03;22.88;;;4.60;99.90;;;;;;5066168;28;20879;-60
2020/12/09 05:22:57;;;;;;;38.53;24.52;;;4.40;99.90;;;;;;5068486;28;20213;-60
2020/12/09 05:25:26;;;;;;;33.20;21.25;;;4.60;99.90;;;;;;5066980;28;20231;-60
2020/12/09 05:27:53;;;;;;;34.58;22.60;;;3.90;99.90;;;;;;5068355;28;20176;-60
2020/12/09 05:30:58;;;;;;;36.15;23.05;;;4.60;99.90;;;;;;5067236;28;20268;-60
2020/12/09 05:33:31;;;;;;;30.90;20.67;;;4.60;99.90;;;;;;5006905;28;20648;-59
2020/12/09 05:35:59;;;;;;;31.65;22.33;;;4.70;99.90;;;;;;5026897;28;20637;-60
2020/12/09 05:38:25;;;;;;;30.70;22.08;;;4.80;99.90;;;;;;5043580;28;20560;-59
2020/12/09 05:40:52;;;;;;;38.90;21.80;;;4.50;99.90;;;;;;5068755;28;20260;-60
2020/12/09 05:43:18;;;;;;;33.40;22.33;;;4.50;99.90;;;;;;5067325;28;20436;-60
2020/12/09 05:45:44;;;;;;;34.17;22.27;;;4.50;99.90;;;;;;5068162;28;20213;-59
2020/12/09 05:48:14;;;;;;;33.60;21.63;;;4.60;99.90;;;;;;5067124;28;20186;-59
2020/12/09 05:50:51;;;;;;;32.65;21.35;;;4.50;99.90;;;;;;5068008;28;20276;-60
2020/12/09 05:53:19;;;;;;;30.40;20.60;;;4.40;99.90;;;;;;5067610;28;20209;-60
2020/12/09 05:55:45;;;;;;;33.45;22.52;;;4.20;99.90;;;;;;5067406;28;20686;-59
2020/12/09 05:58:22;;;;;;;34.63;22.55;;;4.30;99.90;;;;;;5067548;28;20181;-60
2020/12/09 06:01:09;;;;;;;32.35;21.67;;;4.20;99.90;;;;;;5065693;28;20633;-60
2020/12/09 06:03:37;;;;;;;33.45;21.80;;;4.40;99.90;;;;;;5068100;28;20246;-60
2020/12/09 06:06:21;;;;;;;34.50;22.13;;;4.30;99.90;;;;;;5065524;28;20213;-60
2020/12/09 06:08:50;;;;;;;32.45;21.77;;;4.20;99.90;;;;;;5076945;28;20182;-60
2020/12/09 06:11:22;;;;;;;29.85;20.60;;;4.20;99.90;;;;;;5066708;28;20214;-60
2020/12/09 06:13:48;;;;;;;31.85;21.65;;;4.30;99.90;;;;;;5065716;28;20745;-59
2020/12/09 06:16:17;;;;;;;30.48;21.85;;;4.50;99.90;;;;;;5067102;28;20580;-59
2020/12/09 06:18:45;;;;;;;34.90;22.13;;;4.40;99.90;;;;;;5059456;28;20181;-60
2020/12/09 06:21:11;;;;;;;33.90;22.30;;;4.40;99.90;;;;;;5066244;28;20200;-59
2020/12/09 06:23:37;;;;;;;32.60;21.00;;;4.50;99.90;;;;;;5068145;28;20192;-60
2020/12/09 06:26:04;;;;;;;32.10;20.48;;;4.00;99.90;;;;;;5070818;28;20474;-59
2020/12/09 06:28:35;;;;;;;32.72;20.90;;;4.50;99.90;;;;;;5064061;28;20214;-59
2020/12/09 06:31:22;;;;;;;31.00;20.17;;;4.40;99.90;;;;;;5077052;28;20246;-60
2020/12/09 06:33:52;;;;;;;28.52;20.02;;;4.20;99.90;;;;;;5086923;28;20208;-60
2020/12/09 06:36:29;;;;;;;30.70;22.02;;;4.20;99.90;;;;;;5070453;28;20219;-60
2020/12/09 06:39:15;;;;;;;30.70;21.30;;;4.50;99.90;;;;;;5069960;28;20185;-59
2020/12/09 06:42:05;;;;;;;29.98;20.08;;;4.30;99.90;;;;;;5071244;28;20209;-56
2020/12/09 06:44:30;;;;;;;28.27;19.90;;;4.60;99.90;;;;;;5068053;28;20207;-59
2020/12/09 06:46:58;;;;;;;30.30;20.90;;;4.40;99.90;;;;;;5065280;28;20181;-60
2020/12/09 06:49:29;;;;;;;29.48;19.02;;;4.60;99.90;;;;;;5071998;28;20431;-60
2020/12/09 06:51:56;;;;;;;28.35;20.77;;;4.40;99.90;;;;;;5070122;28;20239;-59
2020/12/09 06:54:35;;;;;;;30.25;20.80;;;4.70;99.90;;;;;;5069622;28;20655;-60
2020/12/09 06:57:15;;;;;;;27.20;20.13;;;4.70;99.90;;;;;;5070653;28;20709;-59
2020/12/09 06:59:43;;;;;;;27.70;18.83;;;4.60;99.90;;;;;;5067289;28;20207;-60
2020/12/09 07:02:09;;;;;;;28.98;20.20;;;4.50;99.90;;;;;;5069163;28;20185;-60
2020/12/09 07:04:53;;;;;;;26.17;17.98;;;4.50;99.90;;;;;;5069132;28;20280;-61
2020/12/09 07:07:29;;;;;;;27.48;19.85;;;4.50;99.90;;;;;;5078519;28;20572;-59
2020/12/09 07:09:55;;;;;;;32.85;20.63;;;4.50;99.90;;;;;;5066502;28;20630;-58
2020/12/09 07:12:21;;;;;;;29.10;19.42;;;4.50;99.90;;;;;;5067979;28;20533;-61
2020/12/09 07:14:51;;;;;;;31.60;20.73;;;4.40;99.90;;;;;;5070309;28;20220;-61
2020/12/09 07:17:19;;;;;;;26.92;19.80;;;4.80;99.90;;;;;;5069302;28;20209;-59
2020/12/09 07:19:45;;;;;;;29.70;20.40;;;4.40;99.90;;;;;;5072582;28;20181;-59
2020/12/09 07:22:11;;;;;;;29.30;19.40;;;4.40;99.90;;;;;;5068903;28;20192;-59
2020/12/09 07:24:36;;;;;;;27.43;19.13;;;4.30;99.90;;;;;;5070128;28;20212;-58
2020/12/09 07:27:02;;;;;;;26.87;19.03;;;4.50;99.90;;;;;;5068122;28;20217;-59
2020/12/09 07:29:28;;;;;;;29.27;20.07;;;4.60;99.90;;;;;;5063950;28;20828;-58
2020/12/09 07:31:59;;;;;;;31.55;20.98;;;4.20;99.90;;;;;;5068894;28;20204;-58
2020/12/09 07:34:25;;;;;;;30.83;20.35;;;4.30;99.90;;;;;;5069515;28;20698;-59
2020/12/09 07:36:52;;;;;;;29.88;19.42;;;4.00;99.90;;;;;;5070237;28;20189;-59
2020/12/09 07:39:34;;;;;;;29.75;20.10;;;4.10;99.90;;;;;;5070752;28;20178;-61
2020/12/09 07:42:01;;;;;;;33.78;21.45;;;4.40;99.90;;;;;;5062875;28;20182;-61
2020/12/09 07:44:28;;;;;;;29.52;20.02;;;4.20;99.90;;;;;;5071109;28;20182;-59
2020/12/09 07:46:58;;;;;;;36.42;22.77;;;4.30;99.90;;;;;;5069988;28;20185;-59
2020/12/09 07:49:25;;;;;;;33.13;21.60;;;4.10;99.90;;;;;;5068185;28;20197;-59
2020/12/09 07:51:53;;;;;;;31.90;20.30;;;4.10;99.90;;;;;;5069700;28;20330;-60
2020/12/09 07:54:20;;;;;;;31.35;22.65;;;4.10;99.90;;;;;;5069489;28;20505;-58
2020/12/09 07:56:46;;;;;;;33.13;22.02;;;4.20;99.90;;;;;;5069602;28;20195;-58
2020/12/09 07:59:13;;;;;;;31.60;22.15;;;4.20;99.90;;;;;;5066299;28;20177;-59
2020/12/09 08:01:39;;;;;;;31.65;20.27;;;4.20;99.90;;;;;;5080989;28;20204;-59
2020/12/09 08:04:05;;;;;;;32.90;21.77;;;4.50;99.90;;;;;;5068812;28;20193;-58
2020/12/09 08:06:33;;;;;;;35.47;22.23;;;4.20;99.90;;;;;;5067547;28;20285;-60
2020/12/09 08:09:14;;;;;;;30.77;21.85;;;4.30;99.90;;;;;;5068671;28;20184;-60
2020/12/09 08:11:43;;;;;;;35.45;22.60;;;4.40;99.90;;;;;;5069137;28;20909;-59
2020/12/09 08:14:10;;;;;;;36.78;22.98;;;4.20;99.90;;;;;;5067414;28;20210;-59
2020/12/09 08:16:36;;;;;;;30.73;21.48;;;4.40;99.90;;;;;;5069510;28;20661;-58
2020/12/09 08:19:09;;;;;;;31.37;19.77;;;4.90;99.90;;;;;;5067244;28;20211;-60
2020/12/09 08:21:35;;;;;;;41.92;27.65;;;4.50;99.90;;;;;;5068137;28;20181;-60
2020/12/09 08:24:12;;;;;;;33.08;22.23;;;4.50;99.90;;;;;;5068613;28;20554;-61
2020/12/09 08:26:38;;;;;;;35.95;22.85;;;4.30;99.90;;;;;;5068490;28;20212;-61
2020/12/09 08:29:06;;;;;;;33.88;23.27;;;4.50;99.90;;;;;;5063766;28;20177;-60
2020/12/09 08:31:33;;;;;;;32.75;21.88;;;4.60;99.90;;;;;;5078130;28;20185;-62
2020/12/09 08:33:59;;;;;;;31.17;21.85;;;4.80;99.90;;;;;;5067520;28;20209;-58
2020/12/09 08:36:26;;;;;;;32.50;22.03;;;4.80;99.90;;;;;;5069770;28;20214;-58
2020/12/09 08:38:59;;;;;;;31.92;22.17;;;4.40;99.90;;;;;;5068016;28;20228;-59
2020/12/09 08:41:36;;;;;;;30.70;20.98;;;4.50;99.90;;;;;;5068530;28;20188;-58
2020/12/09 08:44:07;;;;;;;32.45;21.08;;;4.80;99.90;;;;;;5068655;28;20578;-58
2020/12/09 08:46:33;;;;;;;29.98;21.02;;;4.80;99.90;;;;;;5066587;28;20205;-60
2020/12/09 08:48:59;;;;;;;27.60;21.02;;;4.70;99.90;;;;;;5065048;28;20235;-60
2020/12/09 08:51:27;;;;;;;30.42;20.95;;;4.90;99.90;;;;;;5068608;28;20177;-60
2020/12/09 08:53:54;;;;;;;31.92;21.13;;;5.20;99.90;;;;;;5068016;28;20577;-60
2020/12/09 08:56:27;;;;;;;31.08;21.50;;;5.30;99.90;;;;;;5067650;28;20197;-60
2020/12/09 08:58:53;;;;;;;32.63;24.58;;;5.00;99.90;;;;;;5066017;28;20264;-59
2020/12/09 09:01:19;;;;;;;32.77;20.93;;;5.20;99.90;;;;;;5067443;28;20646;-58
2020/12/09 09:03:46;;;;;;;33.60;21.80;;;5.30;99.90;;;;;;5068080;28;20860;-60
2020/12/09 09:06:11;;;;;;;30.38;22.10;;;4.60;99.90;;;;;;5067721;28;20205;-59
2020/12/09 09:08:37;;;;;;;30.17;21.33;;;5.10;99.90;;;;;;5067415;28;20665;-60
2020/12/09 09:11:02;;;;;;;30.37;20.87;;;5.00;99.90;;;;;;5068933;28;20221;-61
2020/12/09 09:13:28;;;;;;;30.37;22.10;;;5.20;99.90;;;;;;5064284;28;20230;-59
2020/12/09 09:15:54;;;;;;;33.20;21.83;;;4.90;99.90;;;;;;5067269;28;20690;-59
2020/12/09 09:18:20;;;;;;;35.53;22.53;;;5.00;99.90;;;;;;5060476;28;20185;-60
2020/12/09 09:20:45;;;;;;;32.50;22.83;;;4.80;99.90;;;;;;5065415;28;20189;-59
2020/12/09 09:23:11;;;;;;;30.97;22.50;;;4.70;99.90;;;;;;5066885;28;20572;-62
2020/12/09 09:25:37;;;;;;;31.70;23.47;;;4.90;99.90;;;;;;5063571;28;20214;-62
2020/12/09 09:28:03;;;;;;;32.40;22.90;;;5.00;99.90;;;;;;5067181;28;20185;-58
2020/12/09 09:30:29;;;;;;;34.58;24.15;;;5.10;99.90;;;;;;5068860;28;20577;-58
2020/12/09 09:32:54;;;;;;;33.67;23.73;;;4.70;99.90;;;;;;5065796;28;20213;-57
2020/12/09 09:35:20;;;;;;;30.77;22.57;;;4.80;99.90;;;;;;5065728;28;20201;-59
2020/12/09 09:37:46;;;;;;;37.40;24.23;;;4.90;99.90;;;;;;5062863;28;20196;-60
2020/12/09 09:40:12;;;;;;;36.50;23.37;;;5.00;99.90;;;;;;5071227;28;20280;-60
2020/12/09 09:42:39;;;;;;;34.95;22.98;;;4.90;99.90;;;;;;5067835;28;20431;-60
2020/12/09 09:45:07;;;;;;;36.13;25.05;;;5.00;99.90;;;;;;5068314;28;20647;-60
2020/12/09 09:47:33;;;;;;;34.30;22.30;;;5.10;99.90;;;;;;5072252;28;20813;-59
2020/12/09 09:49:58;;;;;;;39.67;24.27;;;5.20;99.90;;;;;;5070631;28;20317;-58
2020/12/09 09:52:24;;;;;;;34.37;24.67;;;5.30;99.90;;;;;;5064764;28;20479;-58
2020/12/09 09:54:50;;;;;;;37.80;23.87;;;4.90;99.90;;;;;;5065921;28;20244;-58
2020/12/09 09:57:15;;;;;;;40.97;25.67;;;5.10;99.90;;;;;;5062983;28;20177;-58
2020/12/09 09:59:41;;;;;;;38.30;26.73;;;4.90;99.90;;;;;;5064573;28;20178;-59
2020/12/09 10:02:06;;;;;;;34.87;22.87;;;5.10;99.90;;;;;;5062555;28;20229;-60
2020/12/09 10:04:32;;;;;;;35.50;25.00;;;5.00;99.90;;;;;;5064570;28;20202;-59
2020/12/09 10:06:58;;;;;;;31.17;23.50;;;5.10;99.90;;;;;;5063199;28;20836;-60
2020/12/09 10:09:23;;;;;;;40.00;25.07;;;5.00;99.90;;;;;;5064373;28;20241;-59
2020/12/09 10:11:49;;;;;;;37.07;23.27;;;4.80;99.90;;;;;;5070516;28;20193;-60
2020/12/09 10:14:15;;;;;;;35.03;24.73;;;4.80;99.90;;;;;;5061267;28;20216;-60
2020/12/09 10:16:43;;;;;;;34.40;23.60;;;4.20;99.90;;;;;;5062996;28;20206;-61
2020/12/09 10:19:09;;;;;;;39.80;26.05;;;4.90;99.90;;;;;;5059387;28;20193;-61
2020/12/09 10:21:36;;;;;;;40.40;25.20;;;5.00;99.90;;;;;;5062007;28;20200;-58
2020/12/09 10:24:03;;;;;;;38.38;24.52;;;5.00;99.90;;;;;;5065500;28;20295;-60
2020/12/09 10:26:30;;;;;;;34.50;23.95;;;4.70;99.90;;;;;;5066812;28;20347;-61
2020/12/09 10:29:00;;;;;;;38.25;25.88;;;5.20;99.90;;;;;;5075115;28;20234;-61
2020/12/09 10:31:32;;;;;;;37.40;24.13;;;4.90;99.90;;;;;;5067566;28;20185;-59
2020/12/09 10:33:57;;;;;;;38.28;23.75;;;4.90;99.90;;;;;;5074815;28;20705;-58
2020/12/09 10:36:23;;;;;;;36.33;24.00;;;5.00;99.90;;;;;;5065545;28;20346;-60
2020/12/09 10:38:49;;;;;;;35.93;23.23;;;5.10;99.90;;;;;;5063195;28;20217;-62
2020/12/09 10:41:14;;;;;;;38.43;24.53;;;5.30;99.90;;;;;;5066389;28;20738;-62
2020/12/09 10:43:40;;;;;;;34.50;23.33;;;5.40;99.90;;;;;;5064860;28;20187;-63
2020/12/09 10:46:06;;;;;;;34.43;22.30;;;5.30;99.90;;;;;;5066352;28;20210;-62
2020/12/09 10:48:31;;;;;;;35.47;22.63;;;5.40;99.90;;;;;;5064625;28;20195;-62
2020/12/09 10:50:57;;;;;;;32.80;22.80;;;5.40;99.90;;;;;;5067480;28;20256;-63
2020/12/09 10:53:23;;;;;;;34.78;23.10;;;5.40;99.90;;;;;;5070113;28;20468;-59
2020/12/09 10:55:49;;;;;;;35.80;23.80;;;4.80;99.90;;;;;;5065622;28;20201;-60
2020/12/09 10:58:14;;;;;;;35.03;24.77;;;5.40;99.90;;;;;;5066926;28;20182;-61
2020/12/09 11:00:40;;;;;;;36.33;23.77;;;5.20;99.90;;;;;;5067766;28;20537;-61
2020/12/09 11:03:05;;;;;;;40.20;25.00;;;5.40;99.90;;;;;;5068265;28;20276;-61
2020/12/09 11:05:31;;;;;;;32.63;23.23;;;5.30;99.90;;;;;;5064880;28;20203;-60
2020/12/09 11:07:56;;;;;;;34.90;23.97;;;5.30;99.90;;;;;;5063489;28;20183;-59
2020/12/09 11:10:22;;;;;;;31.20;21.77;;;5.30;99.90;;;;;;5081556;28;20559;-59
2020/12/09 11:12:48;;;;;;;33.13;22.70;;;5.30;99.90;;;;;;5069906;28;20179;-59
2020/12/09 11:15:13;;;;;;;30.90;23.10;;;5.40;99.90;;;;;;5067949;28;20214;-60
2020/12/09 11:17:39;;;;;;;35.67;22.53;;;5.10;99.90;;;;;;5073316;28;20188;-57
2020/12/09 11:20:05;;;;;;;32.43;22.50;;;5.30;99.90;;;;;;5073974;28;20186;-57
2020/12/09 11:22:31;;;;;;;36.38;25.13;;;5.20;99.90;;;;;;5068401;28;20291;-58
2020/12/09 11:24:57;;;;;;;34.70;23.93;;;4.60;99.90;;;;;;5083321;28;20671;-59
2020/12/09 11:27:22;;;;;;;36.50;22.20;;;5.20;99.90;;;;;;5069787;28;20188;-60
2020/12/09 11:29:48;;;;;;;30.53;21.90;;;5.20;99.90;;;;;;5066933;28;20447;-63
2020/12/09 11:32:14;;;;;;;33.50;23.07;;;5.40;99.90;;;;;;5086258;28;20191;-59
2020/12/09 11:34:40;;;;;;;32.33;23.23;;;5.70;99.90;;;;;;5070386;28;20677;-58
2020/12/09 11:37:05;;;;;;;32.90;21.63;;;5.40;99.90;;;;;;5072445;28;20235;-60
2020/12/09 11:39:31;;;;;;;34.70;23.17;;;5.30;99.90;;;;;;5069471;28;20557;-58
2020/12/09 11:42:01;;;;;;;37.60;23.70;;;5.50;99.90;;;;;;5068839;28;20270;-62
2020/12/09 11:44:26;;;;;;;36.50;24.10;;;5.20;99.90;;;;;;5069257;28;20230;-58
2020/12/09 11:46:52;;;;;;;33.87;23.60;;;5.20;99.90;;;;;;5072899;28;20200;-60
2020/12/09 11:49:18;;;;;;;37.30;23.63;;;5.00;99.90;;;;;;5068901;28;20279;-57
2020/12/09 11:51:47;;;;;;;36.20;23.73;;;5.30;99.90;;;;;;5072226;28;20186;-58
2020/12/09 11:54:13;;;;;;;35.03;23.42;;;5.40;99.90;;;;;;5078749;28;20205;-63
2020/12/09 11:56:38;;;;;;;33.23;22.83;;;5.30;99.90;;;;;;5068067;28;20251;-63
2020/12/09 11:59:04;;;;;;;37.87;25.20;;;5.30;99.90;;;;;;5078244;28;20190;-59
2020/12/09 12:01:30;;;;;;;37.53;23.87;;;5.20;99.90;;;;;;5069384;28;20189;-58
2020/12/09 12:03:55;;;;;;;35.27;24.67;;;5.20;99.90;;;;;;5096869;28;20230;-60
2020/12/09 12:06:25;;;;;;;37.17;24.23;;;4.80;99.90;;;;;;5068396;28;20213;-60
2020/12/09 12:08:52;;;;;;;37.75;24.42;;;5.20;99.90;;;;;;5071815;28;20191;-60
2020/12/09 12:11:20;;;;;;;34.08;22.50;;;5.40;99.90;;;;;;5076822;28;20184;-61
2020/12/09 12:13:46;;;;;;;36.92;24.27;;;5.10;99.90;;;;;;5075658;28;20614;-60
2020/12/09 12:16:13;;;;;;;34.25;22.83;;;5.30;99.90;;;;;;5069204;28;20213;-59
2020/12/09 12:18:39;;;;;;;33.72;22.70;;;4.50;99.90;;;;;;5068707;28;20775;-60
2020/12/09 12:21:05;;;;;;;34.23;21.23;;;4.60;99.90;;;;;;5067937;28;20209;-61
2020/12/09 12:23:30;;;;;;;35.63;22.20;;;5.00;99.90;;;;;;5069213;28;20272;-60
2020/12/09 12:25:57;;;;;;;32.73;20.20;;;4.30;99.90;;;;;;5068773;28;20708;-61
2020/12/09 12:28:24;;;;;;;37.10;25.00;;;4.90;99.90;;;;;;5068517;28;20193;-59
2020/12/09 12:30:50;;;;;;;32.92;22.33;;;5.10;99.90;;;;;;5067942;28;20185;-59
2020/12/09 12:33:16;;;;;;;33.65;21.45;;;4.80;99.90;;;;;;5070483;28;20288;-60
2020/12/09 12:35:42;;;;;;;36.63;22.83;;;5.10;99.90;;;;;;5066581;28;20289;-59
2020/12/09 12:38:08;;;;;;;36.25;22.25;;;5.00;99.90;;;;;;5069415;28;20189;-60
2020/12/09 12:40:33;;;;;;;37.90;23.23;;;5.10;99.90;;;;;;5070703;28;20199;-57